This is the latest recevied weather packets stored in our database for station/object KF7IOR. If no packets are shown the sender has not sent any weather packets the latest 10 day(s).
| Time | Temp. | Humidity | Pressure | Rain* | Wind** | Luminosity | Snow |
|---|---|---|---|---|---|---|---|
| 1777561244 | 11.67° C | 79% | 1019.2 hPa | 0 mm | - | 151 W/m² | - |
| 1777559137 | 10.56° C | 86% | 1019.3 hPa | 0 mm | - | 123 W/m² | - |
| 1777558545 | 8.89° C | 89% | 1019.2 hPa | 0 mm | - | 51 W/m² | - |
| 1777551935 | 7.78° C | 88% | 1019.1 hPa | 0 mm | - | 0 W/m² | - |
| 1777549836 | 8.33° C | 87% | 1019.3 hPa | 0 mm | - | 0 W/m² | - |
| 1777548336 | 8.89° C | 85% | 1019.5 hPa | 0 mm | - | 0 W/m² | - |
| 1777546236 | 9.44° C | 84% | 1019.3 hPa | 0 mm | - | 0 W/m² | - |
| 1777545051 | 9.44° C | 84% | 1019.2 hPa | 0 mm | - | 0 W/m² | - |
| 1777544736 | 9.44° C | 84% | 1019.3 hPa | 0 mm | - | 0 W/m² | - |
| 1777544149 | 9.44° C | 84% | 1019.3 hPa | 0 mm | - | 0 W/m² | - |
| 1777543836 | 8.89° C | 84% | 1019.3 hPa | 0 mm | - | 0 W/m² | - |
| 1777541458 | 9.44° C | 82% | 1019.4 hPa | 0 mm | - | 0 W/m² | - |
| 1777541135 | 9.44° C | 82% | 1019.4 hPa | 0 mm | - | 0 W/m² | - |
| 1777540236 | 9.44° C | 82% | 1019.4 hPa | 0 mm | - | 0 W/m² | - |
| 1777537235 | 11.11° C | 77% | 1019.5 hPa | 0 mm | - | 0 W/m² | - |
| 1777535436 | 11.67° C | 76% | 1019.5 hPa | 0 mm | - | 0 W/m² | - |
| 1777533365 | 11.67° C | 76% | 1019.5 hPa | 0 mm | - | 0 W/m² | - |
| 1777532735 | 11.67° C | 76% | 1019.4 hPa | 0 mm | - | 0 W/m² | - |
| 1777531546 | 12.22° C | 74% | 1019.5 hPa | 0 mm | - | 0 W/m² | - |
| 1777529771 | 12.78° C | 71% | 1019.5 hPa | 0 mm | - | 0 W/m² | - |
| 1777527047 | 14.44° C | 66% | 1019.4 hPa | 0 mm | - | 0 W/m² | - |
| 1777526437 | 15° C | 65% | 1019.5 hPa | 0 mm | - | 0 W/m² | - |
| 1777525836 | 15° C | 64% | 1019.6 hPa | 0 mm | - | 0 W/m² | - |
| 1777523136 | 16.11° C | 62% | 1019.4 hPa | 0 mm | - | 0 W/m² | - |
| 1777520435 | 17.78° C | 56% | 1018.9 hPa | 0 mm | - | 0 W/m² | - |
* Rain latest hour (hover to see other rain measurements)
** Current wind speed in m/s (hover to see current wind gust speed)